createdAt,value
2023-01-11T00:00:45.299Z,85.34
2023-01-11T00:03:12.175Z,85.39
2023-01-11T00:05:40.350Z,85.39
2023-01-11T00:08:07.559Z,85.37
2023-01-11T00:10:34.517Z,85.26
2023-01-11T00:13:01.659Z,85.06
2023-01-11T00:15:28.552Z,85.04
2023-01-11T00:17:55.357Z,85.25
2023-01-11T00:20:22.120Z,85.54
2023-01-11T00:22:49.008Z,85.40
2023-01-11T00:25:16.005Z,86.04
2023-01-11T00:27:42.773Z,85.78
2023-01-11T00:30:10.345Z,85.88
2023-01-11T00:32:37.248Z,85.72
2023-01-11T00:35:04.507Z,85.70
2023-01-11T00:37:31.374Z,85.81
2023-01-11T00:39:58.189Z,85.86
2023-01-11T00:42:43.819Z,85.92
2023-01-11T00:45:29.483Z,85.65
2023-01-11T00:48:01.131Z,85.72
2023-01-11T00:50:30.440Z,85.85
2023-01-11T00:52:58.220Z,85.76
2023-01-11T00:55:25.635Z,85.69
2023-01-11T00:57:52.663Z,85.70
2023-01-11T01:00:20.432Z,86.08
2023-01-11T01:02:47.555Z,86.03
2023-01-11T01:05:14.462Z,85.85
2023-01-11T01:07:41.332Z,85.87
2023-01-11T01:10:08.929Z,86.01
2023-01-11T01:12:54.427Z,86.41
2023-01-11T01:15:21.306Z,86.37
2023-01-11T01:17:48.185Z,86.30
2023-01-11T01:20:15.301Z,86.41
2023-01-11T01:22:42.260Z,86.63
2023-01-11T01:25:09.555Z,86.76
2023-01-11T01:27:36.343Z,86.51
2023-01-11T01:30:04.786Z,86.61
2023-01-11T01:32:31.625Z,86.65
2023-01-11T01:34:58.419Z,86.70
2023-01-11T01:37:25.250Z,86.57
2023-01-11T01:39:52.097Z,86.41
2023-01-11T01:42:20.015Z,86.41
2023-01-11T01:45:23.357Z,86.46
2023-01-11T01:47:58.218Z,86.30
2023-01-11T01:50:38.556Z,86.17
2023-01-11T01:53:10.627Z,86.10
2023-01-11T01:55:40.387Z,86.31
2023-01-11T01:58:10.254Z,86.05
2023-01-11T02:00:40.984Z,86.01
2023-01-11T02:03:08.476Z,86.30
2023-01-11T02:05:35.266Z,86.67
2023-01-11T02:08:02.096Z,86.59
2023-01-11T02:10:29.208Z,86.36
2023-01-11T02:12:58.740Z,86.46
2023-01-11T02:15:25.676Z,86.43
2023-01-11T02:17:52.501Z,86.54
2023-01-11T02:20:28.454Z,86.46
2023-01-11T02:23:07.520Z,86.61
2023-01-11T02:26:02.630Z,86.48
2023-01-11T02:29:09.228Z,86.46
2023-01-11T02:32:07.321Z,86.71
2023-01-11T02:35:09.854Z,86.59
2023-01-11T02:37:55.610Z,86.81
2023-01-11T02:40:30.345Z,87.45
2023-01-11T02:43:24.765Z,87.20
2023-01-11T02:45:59.433Z,87.66
2023-01-11T02:48:47.612Z,87.49
2023-01-11T02:51:20.471Z,87.42
2023-01-11T02:53:54.105Z,87.54
2023-01-11T02:56:31.280Z,87.99
2023-01-11T02:58:58.558Z,87.87
2023-01-11T03:01:25.788Z,88.05
2023-01-11T03:03:52.947Z,87.95
2023-01-11T03:07:13.093Z,87.91
2023-01-11T03:09:58.193Z,88.01
2023-01-11T03:12:55.032Z,87.97
2023-01-11T03:15:50.385Z,88.22
2023-01-11T03:18:36.134Z,88.01
2023-01-11T03:21:21.639Z,88.28
2023-01-11T03:24:07.539Z,87.89
2023-01-11T03:27:06.593Z,87.76
2023-01-11T03:29:47.237Z,87.92
2023-01-11T03:32:33.843Z,87.86
2023-01-11T03:35:06.830Z,87.67
2023-01-11T03:37:51.454Z,87.58
2023-01-11T03:40:21.954Z,87.56
2023-01-11T03:43:09.178Z,87.54
2023-01-11T03:45:37.526Z,87.05
2023-01-11T03:48:04.927Z,86.98
2023-01-11T03:50:31.728Z,86.87
2023-01-11T03:52:58.588Z,86.87
2023-01-11T03:55:26.795Z,86.85
2023-01-11T03:57:53.540Z,86.66
2023-01-11T04:00:21.426Z,86.67
2023-01-11T04:02:48.757Z,86.76
2023-01-11T04:05:15.562Z,86.62
2023-01-11T04:07:42.371Z,86.54
2023-01-11T04:10:10.197Z,86.47
2023-01-11T04:12:37.083Z,86.54
2023-01-11T04:15:05.405Z,86.59
2023-01-11T04:17:32.417Z,86.61
2023-01-11T04:19:59.217Z,86.54
2023-01-11T04:22:26.077Z,86.67
2023-01-11T04:24:52.885Z,86.57
2023-01-11T04:27:19.720Z,86.61
2023-01-11T04:29:46.553Z,86.45
2023-01-11T04:32:13.389Z,86.52
2023-01-11T04:34:40.167Z,86.77
2023-01-11T04:37:07.020Z,86.75
2023-01-11T04:39:33.827Z,86.84
2023-01-11T04:42:19.305Z,86.75
2023-01-11T04:44:48.800Z,86.80
2023-01-11T04:47:16.408Z,86.65
2023-01-11T04:49:43.272Z,86.70
2023-01-11T04:52:11.098Z,86.40
2023-01-11T04:54:38.549Z,86.35
2023-01-11T04:57:05.768Z,86.25
2023-01-11T04:59:32.746Z,86.00
2023-01-11T05:01:59.710Z,85.95
2023-01-11T05:04:26.632Z,85.92
2023-01-11T05:06:53.526Z,86.06
2023-01-11T05:09:20.424Z,85.80
2023-01-11T05:11:47.315Z,85.56
2023-01-11T05:14:15.275Z,85.60
2023-01-11T05:16:42.256Z,85.63
2023-01-11T05:19:10.312Z,85.53
2023-01-11T05:21:39.399Z,85.29
2023-01-11T05:24:09.170Z,85.41
2023-01-11T05:26:37.877Z,85.65
2023-01-11T05:29:06.639Z,85.90
2023-01-11T05:31:34.091Z,86.17
2023-01-11T05:34:01.068Z,86.19
2023-01-11T05:36:28.334Z,86.71
2023-01-11T05:38:56.339Z,86.91
2023-01-11T05:41:24.453Z,86.68
2023-01-11T05:44:10.660Z,86.81
2023-01-11T05:46:38.256Z,86.94
2023-01-11T05:49:05.346Z,87.11
2023-01-11T05:51:32.800Z,86.99
2023-01-11T05:54:00.073Z,86.83
2023-01-11T05:56:27.021Z,86.91
2023-01-11T05:58:53.805Z,86.87
2023-01-11T06:01:21.307Z,88.40
2023-01-11T06:03:48.114Z,86.72
2023-01-11T06:06:15.192Z,86.63
2023-01-11T06:08:42.159Z,86.64
2023-01-11T06:11:08.980Z,86.54
2023-01-11T06:13:35.930Z,86.34
2023-01-11T06:16:07.072Z,86.26
2023-01-11T06:18:38.890Z,86.42
2023-01-11T06:21:06.107Z,86.33
2023-01-11T06:23:34.104Z,86.08
2023-01-11T11:10:45.532Z,99.21
2023-01-11T11:13:42.537Z,98.98
2023-01-11T11:16:24.743Z,98.55
2023-01-11T11:18:52.094Z,98.09
2023-01-11T11:21:29.573Z,97.90
2023-01-11T11:24:05.922Z,97.52
2023-01-11T11:26:37.609Z,97.24
2023-01-11T11:29:06.856Z,97.00
2023-01-11T11:31:35.525Z,96.76
2023-01-11T11:34:13.815Z,96.34
2023-01-11T11:36:44.660Z,95.93
2023-01-11T11:39:29.165Z,95.45
2023-01-11T11:42:07.373Z,94.95
2023-01-11T11:44:34.362Z,94.31
2023-01-11T11:47:06.201Z,93.89
2023-01-11T11:49:34.361Z,93.52
2023-01-11T11:52:01.845Z,93.14
2023-01-11T11:54:53.487Z,92.73
2023-01-11T11:57:28.857Z,92.15
2023-01-11T12:00:07.261Z,91.94
2023-01-11T12:02:35.163Z,91.60
2023-01-11T12:05:06.669Z,91.28
2023-01-11T12:07:49.689Z,90.87
2023-01-11T12:10:23.771Z,90.47
2023-01-11T12:12:57.466Z,90.01
2023-01-11T12:15:25.794Z,89.83
2023-01-11T12:17:52.799Z,89.52
2023-01-11T12:20:22.782Z,89.30
2023-01-11T12:22:50.219Z,88.86
2023-01-11T12:25:21.737Z,88.66
2023-01-11T12:27:57.753Z,88.43
2023-01-11T12:30:49.265Z,88.06
2023-01-11T12:33:38.361Z,87.79
2023-01-11T12:36:27.034Z,87.47
2023-01-11T12:39:13.885Z,87.30
2023-01-11T12:41:50.386Z,87.28
2023-01-11T12:44:42.404Z,87.06
2023-01-11T12:47:47.600Z,87.00
2023-01-11T12:50:20.544Z,87.14
2023-01-11T12:53:09.749Z,87.10
2023-01-11T12:56:04.852Z,86.83
2023-01-11T12:58:40.600Z,86.77
2023-01-11T13:01:34.525Z,86.89
2023-01-11T13:04:07.655Z,86.91
2023-01-11T13:06:59.536Z,86.87
2023-01-11T13:09:32.502Z,86.79
2023-01-11T13:12:05.464Z,86.75
2023-01-11T13:14:41.412Z,86.70
2023-01-11T13:17:34.433Z,86.56
2023-01-11T13:20:48.648Z,86.42
2023-01-11T13:23:39.401Z,86.21
2023-01-11T13:26:35.474Z,86.17
2023-01-11T13:29:17.751Z,86.19
2023-01-11T13:31:45.208Z,86.06
2023-01-11T13:34:47.265Z,85.87
2023-01-11T13:37:18.246Z,85.87
2023-01-11T13:39:51.994Z,85.82
2023-01-11T13:42:24.642Z,85.63
2023-01-11T13:45:01.877Z,85.59
2023-01-11T13:47:35.639Z,85.73
2023-01-11T13:50:39.061Z,85.86
2023-01-11T13:53:15.980Z,85.54
2023-01-11T13:56:08.625Z,85.28
2023-01-11T13:58:53.664Z,85.40
2023-01-11T14:01:43.726Z,85.53
2023-01-11T14:04:43.504Z,85.50
2023-01-11T14:07:39.675Z,85.32
2023-01-11T14:10:17.757Z,85.37
2023-01-11T14:13:06.232Z,85.32
2023-01-11T14:15:47.150Z,85.30
2023-01-11T14:18:19.525Z,85.39
2023-01-11T14:20:55.764Z,85.38
2023-01-11T14:23:33.069Z,85.32
2023-01-11T14:26:26.900Z,85.16
2023-01-11T14:29:01.039Z,85.06
2023-01-11T14:31:43.661Z,85.13
2023-01-11T14:37:30.298Z,85.46
2023-01-11T14:40:21.856Z,85.50
2023-01-11T14:42:57.935Z,85.46
2023-01-11T14:45:40.101Z,85.27
2023-01-11T14:48:15.784Z,85.17
2023-01-11T14:50:50.959Z,85.40
2023-01-11T14:53:21.402Z,85.28
2023-01-11T14:55:49.340Z,85.29
2023-01-11T14:58:32.337Z,85.25
2023-01-11T15:00:59.171Z,85.50
2023-01-11T15:03:41.429Z,85.49
2023-01-11T15:06:08.384Z,85.43
2023-01-11T15:08:43.713Z,85.30
2023-01-11T15:11:24.455Z,85.07
2023-01-11T15:13:57.451Z,84.94
2023-01-11T15:16:47.219Z,84.84
2023-01-11T15:19:25.357Z,84.71
2023-01-11T15:21:53.500Z,84.29
2023-01-11T15:24:27.515Z,84.16
2023-01-11T15:26:55.027Z,84.13
2023-01-11T15:29:37.760Z,84.11
2023-01-11T15:32:19.552Z,84.19
2023-01-11T15:34:47.574Z,84.01
2023-01-11T15:37:42.318Z,83.81
2023-01-11T15:40:19.554Z,83.56
2023-01-11T15:43:14.309Z,83.23
2023-01-11T15:46:54.132Z,83.32
2023-01-11T15:49:23.945Z,83.43
2023-01-11T15:52:42.036Z,83.40
2023-01-11T15:55:27.708Z,83.51
2023-01-11T15:58:06.727Z,83.52
2023-01-11T16:00:55.600Z,83.58
2023-01-11T16:03:28.392Z,83.48
2023-01-11T16:06:17.966Z,83.57
2023-01-11T16:09:12.755Z,83.44
2023-01-11T16:11:42.235Z,83.45
2023-01-11T16:14:27.911Z,83.48
2023-01-11T16:16:55.943Z,83.54
2023-01-11T16:19:24.528Z,83.56
2023-01-11T16:21:52.705Z,83.83
2023-01-11T16:24:21.273Z,83.82
2023-01-11T16:26:53.908Z,83.94
2023-01-11T16:29:23.562Z,84.00
2023-01-11T16:32:14.825Z,84.19
2023-01-11T16:34:43.281Z,84.11
2023-01-11T16:37:20.896Z,83.98
2023-01-11T16:39:49.382Z,84.01
2023-01-11T16:42:16.203Z,84.30
2023-01-11T16:44:55.932Z,84.15
2023-01-11T16:47:22.764Z,84.04
2023-01-11T16:50:09.628Z,84.07
2023-01-11T16:52:38.930Z,84.21
2023-01-11T16:55:15.550Z,84.18
2023-01-11T16:57:44.367Z,84.14
2023-01-11T17:00:32.579Z,84.09
2023-01-11T17:03:18.088Z,84.28
2023-01-11T17:05:58.611Z,84.41
2023-01-11T17:08:34.919Z,84.25
2023-01-11T17:11:26.667Z,84.40
2023-01-11T17:14:25.997Z,84.43
2023-01-11T17:16:54.907Z,84.62
2023-01-11T17:19:24.478Z,84.60
2023-01-11T17:22:00.101Z,84.53
2023-01-11T17:24:27.313Z,84.38
2023-01-11T17:26:56.740Z,84.38
2023-01-11T17:29:29.478Z,84.37
2023-01-11T17:31:56.549Z,84.33
2023-01-11T17:34:28.236Z,84.16
2023-01-11T17:36:55.626Z,83.99
2023-01-11T17:39:33.635Z,84.08
2023-01-11T17:42:29.925Z,83.80
2023-01-11T17:45:15.080Z,83.88
2023-01-11T17:47:52.909Z,83.97
2023-01-11T17:50:45.728Z,84.22
2023-01-11T17:53:12.552Z,84.11
2023-01-11T17:55:58.608Z,84.13
2023-01-11T17:58:26.522Z,84.23
2023-01-11T18:01:08.890Z,84.31
2023-01-11T18:04:03.345Z,84.22
2023-01-11T18:06:40.175Z,84.47
2023-01-11T18:09:29.413Z,83.96
2023-01-11T18:12:16.353Z,84.18
2023-01-11T18:14:51.237Z,84.46
2023-01-11T18:17:35.386Z,84.34
2023-01-11T18:20:22.477Z,84.34
2023-01-11T18:23:05.269Z,84.49
2023-01-11T18:25:35.058Z,84.59
2023-01-11T18:28:11.328Z,84.61
2023-01-11T18:30:40.062Z,84.57
2023-01-11T18:33:20.242Z,84.87
2023-01-11T18:35:48.955Z,84.88
2023-01-11T18:38:24.560Z,84.88
2023-01-11T18:40:52.397Z,84.92
2023-01-11T18:43:24.895Z,84.95
2023-01-11T18:45:52.037Z,85.04
2023-01-11T18:48:19.049Z,84.90
2023-01-11T18:50:46.108Z,84.87
2023-01-11T18:53:13.177Z,84.96
2023-01-11T18:55:40.326Z,85.01
2023-01-11T18:58:07.325Z,85.08
2023-01-11T19:00:35.028Z,84.97
2023-01-11T21:16:08.032Z,95.75
2023-01-11T21:18:35.705Z,95.56
2023-01-11T21:21:02.520Z,95.11
2023-01-11T21:23:29.274Z,94.84
2023-01-11T21:25:57.055Z,94.57
2023-01-11T21:28:24.015Z,94.25
2023-01-11T21:30:50.745Z,94.01
2023-01-11T21:33:17.495Z,93.71
2023-01-11T21:35:44.139Z,93.42
2023-01-11T21:38:10.912Z,93.10
2023-01-11T21:40:37.570Z,92.76
2023-01-11T21:43:04.588Z,92.38
2023-01-11T21:45:31.413Z,92.16
2023-01-11T21:47:58.068Z,91.94
2023-01-11T21:50:25.442Z,91.56
2023-01-11T21:52:54.383Z,91.02
2023-01-11T21:55:21.040Z,90.57
2023-01-11T21:57:48.287Z,90.23
2023-01-11T22:00:16.603Z,89.87
2023-01-11T22:02:43.238Z,89.41
2023-01-11T22:05:09.930Z,89.06
2023-01-11T22:07:39.813Z,88.96
2023-01-11T22:10:07.122Z,88.95
2023-01-11T22:12:34.310Z,88.70
2023-01-11T22:15:01.001Z,88.48
2023-01-11T22:17:27.846Z,88.26
2023-01-11T22:19:54.560Z,88.13
2023-01-11T22:22:21.592Z,88.11
2023-01-11T22:24:48.280Z,87.89
2023-01-11T22:27:14.929Z,87.73
2023-01-11T22:29:43.821Z,87.53
2023-01-11T22:32:10.463Z,87.51
2023-01-11T22:34:38.771Z,87.43
2023-01-11T22:37:08.702Z,87.29
2023-01-11T22:39:39.956Z,87.14
2023-01-11T22:42:06.953Z,86.95
2023-01-11T22:44:33.795Z,87.05
2023-01-11T22:47:00.810Z,86.92
2023-01-11T22:49:27.451Z,86.68
2023-01-11T22:51:54.838Z,86.55
2023-01-11T22:54:22.431Z,86.58
2023-01-11T22:56:49.165Z,86.47
2023-01-11T22:59:15.760Z,86.22
2023-01-11T23:01:42.733Z,85.95
2023-01-11T23:04:11.584Z,85.89
2023-01-11T23:06:39.330Z,85.97
2023-01-11T23:09:07.974Z,85.88
2023-01-11T23:11:57.359Z,85.71
2023-01-11T23:14:32.498Z,85.77
2023-01-11T23:17:05.483Z,85.93
2023-01-11T23:19:34.193Z,85.94
2023-01-11T23:22:00.924Z,85.76
2023-01-11T23:24:27.706Z,85.63
2023-01-11T23:26:54.953Z,85.60
2023-01-11T23:29:21.830Z,85.58
2023-01-11T23:31:48.549Z,85.48
2023-01-11T23:34:15.310Z,85.33
2023-01-11T23:36:42.300Z,85.27
2023-01-11T23:39:14.541Z,85.41
2023-01-11T23:42:02.975Z,85.28
2023-01-11T23:44:29.689Z,85.11
2023-01-11T23:47:14.865Z,85.19
2023-01-11T23:49:43.205Z,85.26
2023-01-11T23:52:10.629Z,85.23
2023-01-11T23:54:37.342Z,85.19
2023-01-11T23:57:04.111Z,85.04
2023-01-11T23:59:32.031Z,85.11
